createdAt,value
2022-07-29T00:02:29.796Z,94559.13
2022-07-29T00:04:56.722Z,94557.75
2022-07-29T00:07:23.495Z,94559.75
2022-07-29T00:09:51.932Z,94549.16
2022-07-29T00:12:26.364Z,94545.31
2022-07-29T00:14:56.229Z,94547.63
2022-07-29T00:17:24.941Z,94544.59
2022-07-29T00:19:52.395Z,94546.88
2022-07-29T00:22:21.577Z,94529.03
2022-07-29T00:24:50.300Z,94533.16
2022-07-29T00:27:18.494Z,94544.72
2022-07-29T00:29:45.402Z,94539.47
2022-07-29T00:32:12.304Z,94532.69
2022-07-29T00:34:57.599Z,94521.03
2022-07-29T00:37:24.620Z,94525.59
2022-07-29T00:39:51.546Z,94530.63
2022-07-29T00:42:18.687Z,94517.09
2022-07-29T00:44:45.823Z,94523.69
2022-07-29T00:47:13.637Z,94525.75
2022-07-29T00:49:42.440Z,94517.00
2022-07-29T00:52:10.946Z,94520.22
2022-07-29T00:54:44.483Z,94504.75
2022-07-29T00:57:12.175Z,94508.88
2022-07-29T00:59:38.963Z,94515.97
2022-07-29T01:02:06.090Z,94513.41
2022-07-29T01:04:33.564Z,94520.47
2022-07-29T01:07:03.692Z,94506.97
2022-07-29T01:09:42.964Z,94501.13
2022-07-29T01:12:18.204Z,94510.63
2022-07-29T01:14:47.107Z,94498.19
2022-07-29T01:17:25.731Z,94500.66
2022-07-29T01:20:18.376Z,94500.19
2022-07-29T01:23:23.143Z,94503.84
2022-07-29T01:26:00.180Z,94487.22
2022-07-29T01:28:56.572Z,94491.69
2022-07-29T01:31:59.429Z,94490.59
2022-07-29T01:34:57.448Z,94480.91
2022-07-29T01:37:40.848Z,94480.25
2022-07-29T01:40:32.196Z,94482.78
2022-07-29T01:43:06.740Z,94472.13
2022-07-29T01:45:53.701Z,94474.38
2022-07-29T01:48:39.351Z,94474.81
2022-07-29T01:51:16.062Z,94471.94
2022-07-29T01:53:56.156Z,94472.50
2022-07-29T01:56:25.479Z,94468.28
2022-07-29T01:58:54.267Z,94473.81
2022-07-29T02:01:25.477Z,94459.84
2022-07-29T02:03:55.486Z,94460.19
2022-07-29T02:06:24.597Z,94463.25
2022-07-29T02:08:53.945Z,94453.19
2022-07-29T02:11:20.846Z,94455.00
2022-07-29T02:13:48.701Z,94458.09
2022-07-29T02:16:17.692Z,94455.19
2022-07-29T02:18:46.811Z,94448.69
2022-07-29T02:21:17.319Z,94452.19
2022-07-29T02:23:51.455Z,94455.84
2022-07-29T02:26:21.239Z,94444.28
2022-07-29T02:28:51.422Z,94455.78
2022-07-29T02:31:20.588Z,94465.97
2022-07-29T02:33:49.248Z,94454.34
2022-07-29T02:36:17.792Z,94454.16
2022-07-29T02:38:54.524Z,94463.19
2022-07-29T02:41:30.650Z,94463.56
2022-07-29T02:44:05.324Z,94465.63
2022-07-29T02:46:36.266Z,94461.31
2022-07-29T02:49:22.227Z,94462.16
2022-07-29T02:52:05.664Z,94452.31
2022-07-29T02:54:42.580Z,94455.63
2022-07-29T02:57:55.396Z,94462.25
2022-07-29T03:00:31.253Z,94451.94
2022-07-29T03:03:04.466Z,94460.09
2022-07-29T03:05:32.362Z,94457.03
2022-07-29T03:08:05.344Z,94460.47
2022-07-29T03:10:33.598Z,94471.22
2022-07-29T03:13:02.034Z,94454.03
2022-07-29T03:15:29.607Z,94467.97
2022-07-29T03:17:56.959Z,94459.00
2022-07-29T03:20:25.685Z,94462.72
2022-07-29T03:22:52.586Z,94459.91
2022-07-29T03:25:22.289Z,94473.56
2022-07-29T03:27:49.830Z,94469.69
2022-07-29T03:30:20.981Z,94465.16
2022-07-29T03:32:52.169Z,94465.94
2022-07-29T03:35:20.722Z,94463.06
2022-07-29T03:37:47.956Z,94467.06
2022-07-29T03:40:21.542Z,94463.38
2022-07-29T03:42:51.165Z,94470.53
2022-07-29T03:45:20.232Z,94462.94
2022-07-29T03:48:00.312Z,94461.69
2022-07-29T03:50:30.302Z,94463.31
2022-07-29T03:52:57.352Z,94463.31
2022-07-29T03:55:24.825Z,94459.25
2022-07-29T03:57:52.294Z,94462.69
2022-07-29T04:00:20.570Z,94451.06
2022-07-29T04:02:50.095Z,94466.16
2022-07-29T04:05:18.525Z,94466.97
2022-07-29T04:07:46.824Z,94464.50
2022-07-29T04:10:14.446Z,94457.13
2022-07-29T04:12:41.277Z,94456.13
2022-07-29T04:15:09.492Z,94459.63
2022-07-29T04:17:36.427Z,94462.44
2022-07-29T04:20:04.485Z,94465.94
2022-07-29T04:22:31.832Z,94461.03
2022-07-29T04:25:03.546Z,94459.59
2022-07-29T04:27:30.903Z,94450.47
2022-07-29T04:29:57.745Z,94462.56
2022-07-29T04:32:26.040Z,94451.53
2022-07-29T04:34:52.840Z,94453.28
2022-07-29T04:37:20.105Z,94445.59
2022-07-29T04:39:46.999Z,94461.66
2022-07-29T04:42:13.793Z,94456.16
2022-07-29T04:44:43.130Z,94458.22
2022-07-29T04:47:10.568Z,94463.97
2022-07-29T04:49:40.636Z,94461.09
2022-07-29T04:52:08.137Z,94464.78
2022-07-29T04:54:34.960Z,94466.34
2022-07-29T04:57:01.746Z,94468.50
2022-07-29T04:59:28.623Z,94470.75
2022-07-29T05:01:55.425Z,94468.28
2022-07-29T05:04:22.254Z,94475.63
2022-07-29T05:06:49.366Z,94470.09
2022-07-29T05:09:16.270Z,94476.19
2022-07-29T05:11:43.061Z,94480.25
2022-07-29T05:14:10.008Z,94476.16
2022-07-29T05:16:36.870Z,94473.28
2022-07-29T05:19:04.016Z,94477.34
2022-07-29T05:21:30.870Z,94474.88
2022-07-29T05:23:57.662Z,94470.63
2022-07-29T05:26:25.406Z,94475.38
2022-07-29T05:28:52.242Z,94480.66
2022-07-29T05:31:19.101Z,94477.56
2022-07-29T05:33:46.219Z,94481.09
2022-07-29T05:36:13.089Z,94467.56
2022-07-29T05:38:39.867Z,94478.22
2022-07-29T05:41:06.866Z,94481.44
2022-07-29T05:43:34.015Z,94481.44
2022-07-29T05:46:00.997Z,94485.88
2022-07-29T05:48:28.334Z,94480.16
2022-07-29T05:50:55.768Z,94491.44
2022-07-29T05:53:23.041Z,94486.16
2022-07-29T05:55:50.030Z,94487.91
2022-07-29T05:58:17.424Z,94490.97
2022-07-29T06:00:44.525Z,94500.94
2022-07-29T06:03:11.985Z,94490.34
2022-07-29T06:05:38.828Z,94490.31
2022-07-29T06:08:08.342Z,94493.53
2022-07-29T06:10:37.824Z,94490.47
2022-07-29T06:13:04.694Z,94492.13
2022-07-29T06:15:31.488Z,94484.97
2022-07-29T06:18:00.141Z,94503.03
2022-07-29T06:20:31.473Z,94499.53
2022-07-29T06:22:58.889Z,94502.25
2022-07-29T06:25:25.697Z,94498.94
2022-07-29T06:27:53.605Z,94502.34
2022-07-29T06:30:20.654Z,94499.00
2022-07-29T06:32:48.281Z,94494.63
2022-07-29T06:35:41.229Z,94490.66
2022-07-29T06:38:03.717Z,94498.06
2022-07-29T06:40:55.162Z,94495.13
2022-07-29T06:43:21.965Z,94488.91
2022-07-29T06:45:49.649Z,94503.06
2022-07-29T06:48:16.474Z,94490.38
2022-07-29T06:50:43.375Z,94493.00
2022-07-29T06:53:10.196Z,94500.69
2022-07-29T06:55:38.075Z,94500.25
2022-07-29T06:58:04.829Z,94501.19
2022-07-29T07:00:31.760Z,94507.81
2022-07-29T07:02:58.582Z,94513.63
2022-07-29T07:05:25.409Z,94508.34
2022-07-29T07:07:52.201Z,94510.34
2022-07-29T07:10:19.670Z,94511.34
2022-07-29T07:12:46.504Z,94504.19
2022-07-29T07:15:13.336Z,94505.25
2022-07-29T07:17:40.161Z,94512.59
2022-07-29T07:20:08.258Z,94510.75
2022-07-29T07:22:38.862Z,94512.16
2022-07-29T07:25:06.594Z,94514.75
2022-07-29T07:27:33.382Z,94513.94
2022-07-29T07:30:00.438Z,94516.16
2022-07-29T07:32:27.386Z,94513.47
2022-07-29T07:34:54.167Z,94521.94
2022-07-29T07:37:21.643Z,94513.94
2022-07-29T07:39:48.420Z,94501.97
2022-07-29T07:42:15.266Z,94515.25
2022-07-29T07:45:03.901Z,94518.00
2022-07-29T07:47:28.962Z,94521.50
2022-07-29T07:49:55.883Z,94527.50
2022-07-29T07:52:23.457Z,94526.03
2022-07-29T07:54:50.724Z,94524.41
2022-07-29T07:57:17.897Z,94524.94
2022-07-29T07:59:44.719Z,94523.41
2022-07-29T08:02:11.745Z,94519.06
2022-07-29T08:04:41.401Z,94520.44
2022-07-29T08:07:09.906Z,94526.78
2022-07-29T08:09:37.161Z,94526.41
2022-07-29T08:12:05.468Z,94519.16
2022-07-29T08:14:32.911Z,94524.44
2022-07-29T08:16:59.845Z,94531.50
2022-07-29T08:19:26.781Z,94536.47
2022-07-29T08:21:54.951Z,94531.09
2022-07-29T08:24:41.849Z,94540.38
2022-07-29T08:27:26.898Z,94535.88
2022-07-29T08:29:56.917Z,94535.66
2022-07-29T08:32:50.856Z,94543.28
2022-07-29T08:35:10.728Z,94545.47
2022-07-29T08:37:37.552Z,94540.19
2022-07-29T08:40:05.047Z,94551.25
2022-07-29T08:42:31.882Z,94563.19
2022-07-29T08:44:59.787Z,94557.09
2022-07-29T08:47:28.900Z,94558.31
2022-07-29T08:49:55.664Z,94561.00
2022-07-29T08:52:23.221Z,94561.41
2022-07-29T08:54:50.774Z,94568.97
2022-07-29T08:57:18.324Z,94565.69
2022-07-29T08:59:47.998Z,94573.50
2022-07-29T09:02:22.094Z,94574.81
2022-07-29T09:04:49.873Z,94564.75
2022-07-29T09:07:18.702Z,94573.03
2022-07-29T09:09:45.710Z,94571.88
2022-07-29T09:12:13.237Z,94570.50
2022-07-29T09:14:55.759Z,94569.59
2022-07-29T09:17:50.412Z,94584.59
2022-07-29T09:20:25.436Z,94579.22
2022-07-29T09:22:54.602Z,94583.53
2022-07-29T09:25:39.209Z,94577.41
2022-07-29T09:28:12.558Z,94588.66
2022-07-29T09:30:57.540Z,94584.50
2022-07-29T09:33:32.734Z,94591.84
2022-07-29T09:36:10.555Z,94575.84
2022-07-29T09:38:40.441Z,94586.16
2022-07-29T09:41:09.744Z,94582.25
2022-07-29T09:43:36.539Z,94583.53
2022-07-29T09:46:14.034Z,94582.28
2022-07-29T09:48:41.197Z,94579.28
2022-07-29T09:51:26.942Z,94577.41
2022-07-29T09:53:56.879Z,94577.03
2022-07-29T09:56:43.502Z,94573.13
2022-07-29T09:59:12.223Z,94555.53
2022-07-29T10:01:39.167Z,94557.63
2022-07-29T10:04:05.992Z,94566.81
2022-07-29T10:06:32.857Z,94564.84
2022-07-29T10:09:10.757Z,94563.31
2022-07-29T10:11:49.288Z,94564.34
2022-07-29T10:14:17.370Z,94572.03
2022-07-29T10:16:44.554Z,94563.97
2022-07-29T10:19:11.684Z,94558.22
2022-07-29T10:21:40.825Z,94554.88
2022-07-29T10:24:15.128Z,94551.69
2022-07-29T10:26:42.946Z,94553.38
2022-07-29T10:29:09.756Z,94555.88
2022-07-29T10:32:18.818Z,94557.72
2022-07-29T10:35:13.315Z,94557.03
2022-07-29T10:38:05.489Z,94564.72
2022-07-29T10:41:31.932Z,94560.56
2022-07-29T10:44:08.184Z,94563.81
2022-07-29T10:46:41.308Z,94574.03
2022-07-29T10:49:30.301Z,94570.53
2022-07-29T10:52:09.649Z,94561.59
2022-07-29T10:54:37.467Z,94557.44
2022-07-29T10:57:53.593Z,94560.00
2022-07-29T11:00:17.035Z,94557.50
2022-07-29T11:02:46.322Z,94545.00
2022-07-29T11:05:21.894Z,94548.41
2022-07-29T11:08:20.458Z,94541.97
2022-07-29T11:10:52.820Z,94534.03
2022-07-29T11:13:44.240Z,94538.69
2022-07-29T11:16:11.247Z,94533.91
2022-07-29T11:19:13.789Z,94538.84
2022-07-29T11:21:53.848Z,94516.50
2022-07-29T11:24:35.564Z,94532.66
2022-07-29T11:27:22.042Z,94519.97
2022-07-29T11:29:54.502Z,94526.63
2022-07-29T11:32:25.278Z,94527.44
2022-07-29T11:35:37.942Z,94518.66
2022-07-29T11:38:29.169Z,94516.69
2022-07-29T11:41:36.987Z,94517.81
2022-07-29T11:44:04.329Z,94514.41
2022-07-29T11:46:50.249Z,94515.53
2022-07-29T11:52:15.271Z,94498.53
2022-07-29T11:54:58.389Z,94508.50
2022-07-29T11:57:35.946Z,94507.97
2022-07-29T12:00:12.539Z,94504.19
2022-07-29T12:02:44.037Z,94514.94
2022-07-29T12:05:24.020Z,94504.03
2022-07-29T12:08:20.270Z,94507.13
2022-07-29T12:10:49.412Z,94501.91
2022-07-29T12:13:19.333Z,94508.50
2022-07-29T12:15:56.561Z,94507.19
2022-07-29T12:18:27.900Z,94504.66
2022-07-29T12:21:04.870Z,94495.66
2022-07-29T12:23:35.718Z,94500.44
2022-07-29T12:26:10.566Z,94492.63
2022-07-29T12:28:39.711Z,94477.13
2022-07-29T12:31:08.201Z,94493.19
2022-07-29T12:33:36.126Z,94498.97
2022-07-29T12:36:10.324Z,94487.69
2022-07-29T12:38:41.406Z,94500.16
2022-07-29T12:41:08.422Z,94492.63
2022-07-29T12:43:35.224Z,94502.88
2022-07-29T12:46:16.240Z,94493.88
2022-07-29T12:48:44.801Z,94491.66
2022-07-29T12:51:13.463Z,94498.47
2022-07-29T12:53:40.587Z,94499.25
2022-07-29T12:56:41.349Z,94496.56
2022-07-29T12:59:23.569Z,94502.81
2022-07-29T13:01:52.980Z,94501.56
2022-07-29T13:04:30.611Z,94495.91
2022-07-29T13:07:10.284Z,94487.16
2022-07-29T13:09:46.650Z,94502.88
2022-07-29T13:12:15.046Z,94506.16
2022-07-29T13:14:44.361Z,94517.78
2022-07-29T13:17:21.816Z,94525.69
2022-07-29T13:19:54.575Z,94526.22
2022-07-29T13:22:25.272Z,94536.56
2022-07-29T13:24:54.055Z,94532.97
2022-07-29T13:27:27.661Z,94542.31
2022-07-29T13:29:57.707Z,94548.91
2022-07-29T13:32:27.796Z,94545.38
2022-07-29T13:34:57.749Z,94536.44
2022-07-29T13:37:24.574Z,94544.94
2022-07-29T13:39:52.945Z,94550.53
2022-07-29T13:42:20.834Z,94565.41
2022-07-29T13:44:49.772Z,94568.75
2022-07-29T13:47:17.261Z,94569.94
2022-07-29T13:49:44.087Z,94559.84
2022-07-29T13:52:10.901Z,94560.81
2022-07-29T13:54:42.080Z,94567.06
2022-07-29T13:57:11.816Z,94569.59
2022-07-29T13:59:40.305Z,94571.25
2022-07-29T14:02:07.504Z,94589.06
2022-07-29T14:04:34.754Z,94580.28
2022-07-29T14:07:03.745Z,94567.44
2022-07-29T14:09:37.464Z,94567.56
2022-07-29T14:12:09.490Z,94574.75
2022-07-29T14:14:37.789Z,94573.06
2022-07-29T14:17:07.666Z,94566.16
2022-07-29T14:19:39.458Z,94578.16
2022-07-29T14:22:08.712Z,94578.34
2022-07-29T14:24:37.810Z,94571.28
2022-07-29T14:27:06.092Z,94566.88
2022-07-29T14:29:37.073Z,94579.69
2022-07-29T14:32:09.099Z,94589.59
2022-07-29T14:34:37.869Z,94611.63
2022-07-29T14:37:15.834Z,94600.16
2022-07-29T14:39:43.453Z,94599.53
2022-07-29T14:42:12.776Z,94586.84
2022-07-29T14:44:42.546Z,94594.31
2022-07-29T14:47:09.652Z,94591.56
2022-07-29T14:49:36.725Z,94588.53
2022-07-29T14:52:03.981Z,94588.91
2022-07-29T14:54:30.780Z,94596.72
2022-07-29T14:56:58.768Z,94597.19
2022-07-29T14:59:27.002Z,94599.59
2022-07-29T15:01:54.115Z,94610.38
2022-07-29T15:04:21.476Z,94616.22
2022-07-29T15:06:48.721Z,94617.25
2022-07-29T15:09:15.565Z,94608.81
2022-07-29T15:11:42.336Z,94610.84
2022-07-29T15:14:09.353Z,94610.47
2022-07-29T15:16:43.522Z,94609.19
2022-07-29T15:19:10.790Z,94613.59
2022-07-29T15:21:48.195Z,94614.31
2022-07-29T15:24:20.095Z,94608.97
2022-07-29T15:26:48.066Z,94607.31
2022-07-29T15:29:15.835Z,94618.03
2022-07-29T15:31:43.318Z,94595.97
2022-07-29T15:34:10.383Z,94618.22
2022-07-29T15:36:53.596Z,94612.53
2022-07-29T15:39:22.926Z,94621.72
2022-07-29T15:41:50.526Z,94617.41
2022-07-29T15:44:17.620Z,94618.22
2022-07-29T15:47:03.034Z,94607.13
2022-07-29T15:49:47.111Z,94602.91
2022-07-29T15:52:25.837Z,94608.94
2022-07-29T15:54:57.787Z,94598.09
2022-07-29T15:57:25.767Z,94598.75
2022-07-29T15:59:53.060Z,94589.34
2022-07-29T16:02:20.006Z,94601.59
2022-07-29T16:04:47.330Z,94597.06
2022-07-29T16:07:15.245Z,94603.22
2022-07-29T16:09:43.003Z,94600.78
2022-07-29T16:12:15.308Z,94603.78
2022-07-29T16:14:43.973Z,94601.31
2022-07-29T16:17:14.255Z,94602.34
2022-07-29T16:19:45.456Z,94593.44
2022-07-29T16:22:12.871Z,94604.09
2022-07-29T16:24:39.949Z,94607.16
2022-07-29T16:27:06.983Z,94600.97
2022-07-29T16:29:33.824Z,94600.13
2022-07-29T16:32:01.096Z,94598.75
2022-07-29T16:34:27.986Z,94599.63
2022-07-29T16:36:54.762Z,94606.38
2022-07-29T16:39:21.721Z,94609.63
2022-07-29T16:41:48.537Z,94601.34
2022-07-29T16:44:18.188Z,94596.72
2022-07-29T16:46:45.811Z,94616.81
2022-07-29T16:49:18.391Z,94607.50
2022-07-29T16:51:47.925Z,94618.78
2022-07-29T16:54:14.851Z,94617.53
2022-07-29T16:56:41.685Z,94616.03
2022-07-29T16:59:08.556Z,94615.25
2022-07-29T17:01:35.418Z,94613.53
2022-07-29T17:04:08.432Z,94610.34
2022-07-29T17:06:39.745Z,94613.69
2022-07-29T17:09:08.853Z,94620.78
2022-07-29T17:11:52.326Z,94617.19
2022-07-29T17:14:25.170Z,94618.94
2022-07-29T17:17:00.953Z,94619.75
2022-07-29T17:19:37.981Z,94610.69
2022-07-29T17:22:15.672Z,94622.06
2022-07-29T17:24:46.643Z,94623.00
2022-07-29T17:27:13.925Z,94627.13
2022-07-29T17:29:41.589Z,94625.28
2022-07-29T17:32:09.647Z,94631.63
2022-07-29T17:34:41.918Z,94632.31
2022-07-29T17:37:10.867Z,94636.03
2022-07-29T17:39:42.549Z,94642.53
2022-07-29T17:42:12.989Z,94645.53
2022-07-29T17:44:40.838Z,94648.22
2022-07-29T17:47:15.650Z,94642.53
2022-07-29T17:49:43.200Z,94635.44
2022-07-29T17:52:10.293Z,94644.75
2022-07-29T17:54:37.073Z,94635.25
2022-07-29T17:57:04.018Z,94650.38
2022-07-29T17:59:32.818Z,94653.06
2022-07-29T18:01:59.701Z,94648.19
2022-07-29T18:04:26.558Z,94647.72
2022-07-29T18:06:53.900Z,94650.47
2022-07-29T18:09:20.664Z,94657.69
2022-07-29T18:11:48.899Z,94641.09
2022-07-29T18:14:19.318Z,94646.22
2022-07-29T18:16:47.227Z,94641.56
2022-07-29T18:19:15.529Z,94647.50
2022-07-29T18:21:51.253Z,94646.66
2022-07-29T18:24:29.164Z,94653.38
2022-07-29T18:26:56.852Z,94641.13
2022-07-29T18:29:23.828Z,94647.19
2022-07-29T18:31:50.806Z,94651.63
2022-07-29T18:34:17.624Z,94652.06
2022-07-29T18:36:54.654Z,94647.84
2022-07-29T18:39:21.526Z,94643.03
2022-07-29T18:41:51.421Z,94654.94
2022-07-29T18:44:21.973Z,94661.78
2022-07-29T18:46:55.891Z,94666.25
2022-07-29T18:49:23.328Z,94663.50
2022-07-29T18:51:50.605Z,94666.09
2022-07-29T18:54:18.102Z,94681.97
2022-07-29T18:56:46.412Z,94679.06
2022-07-29T18:59:17.036Z,94687.41
2022-07-29T19:01:44.604Z,94689.22
2022-07-29T19:04:11.677Z,94702.34
2022-07-29T19:06:38.937Z,94705.53
2022-07-29T19:09:05.734Z,94706.59
2022-07-29T19:11:32.568Z,94705.41
2022-07-29T19:13:59.342Z,94703.66
2022-07-29T19:16:26.232Z,94707.38
2022-07-29T19:19:00.979Z,94716.31
2022-07-29T19:21:28.359Z,94708.13
2022-07-29T19:24:04.191Z,94715.09
2022-07-29T19:26:36.723Z,94730.41
2022-07-29T19:29:04.212Z,94723.88
2022-07-29T19:31:31.109Z,94720.34
2022-07-29T19:33:57.945Z,94715.22
2022-07-29T19:36:24.793Z,94729.06
2022-07-29T19:38:51.598Z,94720.38
2022-07-29T19:41:18.438Z,94724.31
2022-07-29T19:43:51.760Z,94721.34
2022-07-29T19:46:24.256Z,94731.41
2022-07-29T19:48:53.152Z,94731.28
2022-07-29T19:51:20.004Z,94733.19
2022-07-29T19:53:52.950Z,94729.53
2022-07-29T19:56:19.901Z,94730.06
2022-07-29T19:58:46.713Z,94739.53
2022-07-29T20:01:14.542Z,94737.88
2022-07-29T20:03:41.408Z,94739.19
2022-07-29T20:06:08.700Z,94743.78
2022-07-29T20:08:35.560Z,94742.59
2022-07-29T20:11:02.976Z,94743.00
2022-07-29T20:13:31.813Z,94744.44
2022-07-29T20:15:59.202Z,94748.16
2022-07-29T20:18:26.904Z,94742.72
2022-07-29T20:20:54.098Z,94745.41
2022-07-29T20:23:22.416Z,94740.66
2022-07-29T20:25:50.070Z,94745.00
2022-07-29T20:28:16.889Z,94746.13
2022-07-29T20:30:43.810Z,94744.91
2022-07-29T20:33:10.608Z,94747.19
2022-07-29T20:35:37.492Z,94746.41
2022-07-29T20:38:05.406Z,94744.19
2022-07-29T20:40:32.231Z,94743.34
2022-07-29T20:42:58.995Z,94742.19
2022-07-29T20:45:26.109Z,94746.84
2022-07-29T20:47:53.165Z,94732.06
2022-07-29T20:50:23.596Z,94745.56
2022-07-29T20:52:51.871Z,94746.34
2022-07-29T20:55:18.886Z,94739.03
2022-07-29T20:57:45.706Z,94738.28
2022-07-29T21:00:13.117Z,94736.22
2022-07-29T21:02:40.065Z,94741.53
2022-07-29T21:05:07.140Z,94737.25
2022-07-29T21:07:33.945Z,94734.59
2022-07-29T21:10:00.720Z,94735.84
2022-07-29T21:12:30.692Z,94743.63
2022-07-29T21:14:57.923Z,94738.72
2022-07-29T21:17:25.230Z,94738.41
2022-07-29T21:19:53.392Z,94742.28
2022-07-29T21:22:22.372Z,94734.72
2022-07-29T21:24:50.134Z,94738.38
2022-07-29T21:27:38.339Z,94736.75
2022-07-29T21:30:10.520Z,94737.97
2022-07-29T21:32:37.375Z,94740.00
2022-07-29T21:35:18.218Z,94740.00
2022-07-29T21:37:52.081Z,94729.81
2022-07-29T21:40:19.014Z,94740.41
2022-07-29T21:42:48.312Z,94742.06
2022-07-29T21:45:16.665Z,94741.69
2022-07-29T21:47:43.490Z,94742.09
2022-07-29T21:50:10.335Z,94741.69
2022-07-29T21:52:37.386Z,94729.00
2022-07-29T21:55:04.685Z,94734.75
2022-07-29T21:57:31.604Z,94741.69
2022-07-29T22:00:02.505Z,94747.41
2022-07-29T22:02:32.014Z,94746.63
2022-07-29T22:04:58.825Z,94747.44
2022-07-29T22:07:25.639Z,94741.28
2022-07-29T22:10:12.498Z,94738.41
2022-07-29T22:12:39.302Z,94740.66
2022-07-29T22:15:07.202Z,94725.53
2022-07-29T22:17:37.215Z,94734.31
2022-07-29T22:20:05.649Z,94731.06
2022-07-29T22:22:33.234Z,94733.09
2022-07-29T22:25:00.167Z,94730.25
2022-07-29T22:27:26.968Z,94736.34
2022-07-29T22:29:53.813Z,94737.16
2022-07-29T22:32:20.618Z,94737.59
2022-07-29T22:34:47.714Z,94730.63
2022-07-29T22:37:14.810Z,94726.53
2022-07-29T22:39:41.595Z,94735.91
2022-07-29T22:42:08.469Z,94746.94
2022-07-29T22:44:35.412Z,94741.22
2022-07-29T22:47:04.046Z,94752.47
2022-07-29T22:49:36.981Z,94753.25
2022-07-29T22:52:03.968Z,94744.44
2022-07-29T22:54:30.732Z,94743.22
2022-07-29T22:56:57.735Z,94741.19
2022-07-29T22:59:24.615Z,94745.50
2022-07-29T23:01:51.434Z,94743.25
2022-07-29T23:04:18.212Z,94745.06
2022-07-29T23:06:45.018Z,94738.34
2022-07-29T23:09:11.789Z,94742.34
2022-07-29T23:11:38.561Z,94746.13
2022-07-29T23:14:05.352Z,94727.34
2022-07-29T23:16:36.450Z,94749.28
2022-07-29T23:19:38.324Z,94747.06
2022-07-29T23:22:05.200Z,94734.59
2022-07-29T23:24:31.957Z,94736.19
2022-07-29T23:26:59.014Z,94738.03
2022-07-29T23:29:26.504Z,94726.44
2022-07-29T23:31:53.326Z,94728.47
2022-07-29T23:34:20.158Z,94726.44
2022-07-29T23:36:47.022Z,94738.28
2022-07-29T23:39:13.900Z,94728.88
2022-07-29T23:41:40.949Z,94719.47
2022-07-29T23:44:26.931Z,94729.00
2022-07-29T23:46:53.694Z,94726.72
2022-07-29T23:49:20.468Z,94729.00
2022-07-29T23:51:47.309Z,94736.19
2022-07-29T23:54:14.198Z,94731.69
2022-07-29T23:56:41.052Z,94730.88
2022-07-29T23:59:07.877Z,94719.63
